createdAt,value
2019-01-23T00:02:25.383Z,28.45
2019-01-23T00:05:05.472Z,30.52
2019-01-23T00:07:45.628Z,28.15
2019-01-23T00:10:27.995Z,28.55
2019-01-23T00:13:08.116Z,29.05
2019-01-23T00:15:48.272Z,27.62
2019-01-23T00:18:29.350Z,27.17
2019-01-23T00:21:10.207Z,27.62
2019-01-23T00:23:50.577Z,29.20
2019-01-23T00:26:30.677Z,27.05
2019-01-23T00:29:11.311Z,29.30
2019-01-23T00:31:51.876Z,27.73
2019-01-23T00:34:32.413Z,27.52
2019-01-23T00:37:12.389Z,28.65
2019-01-23T00:39:52.419Z,28.95
2019-01-23T00:42:32.417Z,27.82
2019-01-23T00:45:12.603Z,29.15
2019-01-23T00:47:52.919Z,28.55
2019-01-23T00:50:33.185Z,27.42
2019-01-23T00:53:12.967Z,27.70
2019-01-23T00:55:53.149Z,29.35
2019-01-23T00:58:33.224Z,28.55
2019-01-23T01:01:13.600Z,27.02
2019-01-23T01:03:53.524Z,29.37
2019-01-23T01:06:33.418Z,27.77
2019-01-23T01:09:13.431Z,27.62
2019-01-23T01:11:53.301Z,28.83
2019-01-23T01:14:33.032Z,28.62
2019-01-23T01:17:13.004Z,28.40
2019-01-23T01:19:53.214Z,27.20
2019-01-23T01:22:33.258Z,27.07
2019-01-23T01:25:13.173Z,28.83
2019-01-23T01:27:53.263Z,28.47
2019-01-23T01:30:33.358Z,28.15
2019-01-23T01:33:13.382Z,29.02
2019-01-23T01:35:53.485Z,31.45
2019-01-23T01:38:34.433Z,26.42
2019-01-23T01:41:14.438Z,28.65
2019-01-23T01:43:54.760Z,27.98
2019-01-23T01:46:34.930Z,27.37
2019-01-23T01:49:14.222Z,29.37
2019-01-23T01:51:54.412Z,28.57
2019-01-23T01:54:33.852Z,28.77
2019-01-23T01:57:13.915Z,28.17
2019-01-23T01:59:53.567Z,27.60
2019-01-23T02:02:33.484Z,30.68
2019-01-23T02:05:13.337Z,28.75
2019-01-23T02:07:53.278Z,28.07
2019-01-23T02:10:32.670Z,26.50
2019-01-23T02:13:13.067Z,27.05
2019-01-23T02:15:52.927Z,28.77
2019-01-23T02:18:32.974Z,28.05
2019-01-23T02:21:13.253Z,28.87
2019-01-23T02:23:53.507Z,26.10
2019-01-23T02:26:32.773Z,27.25
2019-01-23T02:29:12.386Z,29.40
2019-01-23T02:31:52.652Z,29.35
2019-01-23T02:34:32.435Z,28.55
2019-01-23T02:37:11.854Z,27.80
2019-01-23T02:39:51.829Z,27.82
2019-01-23T02:42:32.206Z,27.13
2019-01-23T02:45:11.690Z,27.48
2019-01-23T02:47:51.698Z,28.00
2019-01-23T02:50:31.693Z,29.50
2019-01-23T02:53:12.009Z,28.98
2019-01-23T02:55:51.725Z,30.75
2019-01-23T02:58:31.907Z,29.50
2019-01-23T03:01:11.833Z,29.70
2019-01-23T03:03:51.962Z,30.05
2019-01-23T03:06:31.323Z,30.23
2019-01-23T03:09:11.263Z,31.30
2019-01-23T03:11:51.415Z,31.52
2019-01-23T03:14:31.341Z,30.37
2019-01-23T03:17:11.227Z,29.12
2019-01-23T03:19:51.478Z,29.02
2019-01-23T03:22:31.305Z,26.17
2019-01-23T03:25:11.414Z,28.30
2019-01-23T03:27:51.525Z,27.82
2019-01-23T03:30:31.518Z,27.50
2019-01-23T03:33:11.755Z,29.30
2019-01-23T03:35:51.926Z,30.80
2019-01-23T03:38:32.065Z,27.98
2019-01-23T03:41:12.121Z,27.55
2019-01-23T03:43:52.376Z,27.98
2019-01-23T03:46:32.208Z,27.62
2019-01-23T03:49:12.245Z,28.47
2019-01-23T03:51:51.873Z,30.85
2019-01-23T03:54:32.255Z,28.30
2019-01-23T03:57:12.066Z,29.23
2019-01-23T03:59:52.403Z,29.12
2019-01-23T04:02:32.153Z,29.80
2019-01-23T04:05:12.069Z,27.37
2019-01-23T04:07:51.943Z,26.33
2019-01-23T04:10:31.977Z,29.85
2019-01-23T04:13:11.917Z,29.15
2019-01-23T04:15:51.963Z,30.27
2019-01-23T04:18:32.152Z,28.42
2019-01-23T04:21:12.242Z,27.30
2019-01-23T04:23:52.156Z,27.82
2019-01-23T04:26:32.207Z,30.32
2019-01-23T04:29:12.378Z,28.98
2019-01-23T04:31:52.565Z,28.02
2019-01-23T04:34:32.728Z,27.52
2019-01-23T04:37:12.572Z,29.95
2019-01-23T04:39:52.826Z,28.73
2019-01-23T04:42:33.074Z,28.25
2019-01-23T04:45:12.700Z,28.60
2019-01-23T04:47:52.401Z,30.65
2019-01-23T04:50:34.324Z,29.50
2019-01-23T04:53:16.193Z,29.00
2019-01-23T04:55:56.357Z,30.37
2019-01-23T04:58:36.385Z,29.85
2019-01-23T05:01:16.531Z,30.55
2019-01-23T05:03:56.762Z,30.85
2019-01-23T05:06:36.945Z,33.65
2019-01-23T05:09:17.901Z,41.70
2019-01-23T05:11:57.972Z,35.98
2019-01-23T05:14:38.005Z,37.53
2019-01-23T05:17:18.035Z,38.85
2019-01-23T05:19:58.124Z,37.17
2019-01-23T05:22:38.407Z,37.05
2019-01-23T05:25:18.546Z,37.42
2019-01-23T05:27:58.842Z,34.92
2019-01-23T05:30:38.626Z,34.58
2019-01-23T05:33:18.672Z,31.42
2019-01-23T05:35:58.825Z,30.27
2019-01-23T05:38:38.958Z,27.73
2019-01-23T05:41:18.848Z,29.65
2019-01-23T05:43:59.043Z,30.15
2019-01-23T05:46:39.318Z,28.90
2019-01-23T05:49:19.138Z,28.92
2019-01-23T05:51:59.244Z,28.70
2019-01-23T05:54:39.422Z,29.32
2019-01-23T05:57:19.547Z,31.80
2019-01-23T06:00:02.355Z,29.63
2019-01-23T06:02:41.654Z,31.05
2019-01-23T06:05:21.563Z,28.17
2019-01-23T06:08:00.825Z,27.25
2019-01-23T06:10:40.714Z,27.35
2019-01-23T06:13:20.931Z,29.42
2019-01-23T06:16:00.832Z,27.52
2019-01-23T06:18:40.142Z,29.12
2019-01-23T06:21:20.103Z,28.35
2019-01-23T06:24:00.110Z,28.07
2019-01-23T06:26:40.548Z,27.90
2019-01-23T06:29:20.472Z,30.27
2019-01-23T06:32:00.634Z,29.32
2019-01-23T06:34:40.754Z,27.75
2019-01-23T06:37:20.598Z,28.75
2019-01-23T06:40:00.996Z,28.70
2019-01-23T06:42:40.791Z,27.95
2019-01-23T06:45:20.874Z,29.35
2019-01-23T06:48:00.283Z,27.85
2019-01-23T06:50:40.591Z,27.75
2019-01-23T06:53:20.334Z,27.73
2019-01-23T06:56:00.552Z,28.05
2019-01-23T06:58:40.466Z,27.75
2019-01-23T07:01:20.662Z,26.07
2019-01-23T07:04:00.776Z,28.83
2019-01-23T07:06:41.126Z,26.27
2019-01-23T07:09:20.911Z,27.30
2019-01-23T07:12:00.910Z,28.70
2019-01-23T07:14:40.927Z,24.25
2019-01-23T07:17:20.948Z,25.55
2019-01-23T07:20:01.157Z,27.85
2019-01-23T07:22:41.060Z,26.45
2019-01-23T07:25:21.097Z,26.42
2019-01-23T07:28:01.091Z,24.75
2019-01-23T07:30:40.471Z,27.82
2019-01-23T07:33:20.852Z,29.75
2019-01-23T07:36:00.779Z,28.47
2019-01-23T07:38:40.921Z,27.40
2019-01-23T07:41:21.150Z,27.95
2019-01-23T07:44:01.468Z,28.57
2019-01-23T07:46:41.331Z,27.17
2019-01-23T07:49:21.530Z,28.27
2019-01-23T07:52:01.724Z,30.10
2019-01-23T07:54:41.699Z,29.52
2019-01-23T07:57:21.059Z,31.50
2019-01-23T08:00:01.088Z,32.80
2019-01-23T08:02:41.314Z,31.48
2019-01-23T08:05:24.360Z,31.60
2019-01-23T08:08:04.836Z,31.35
2019-01-23T08:10:44.843Z,30.85
2019-01-23T08:13:24.841Z,29.87
2019-01-23T08:16:05.047Z,32.55
2019-01-23T08:18:45.431Z,30.55
2019-01-23T08:21:25.212Z,29.80
2019-01-23T08:24:05.339Z,32.83
2019-01-23T08:26:45.440Z,36.03
2019-01-23T08:29:25.638Z,33.75
2019-01-23T08:32:05.906Z,35.43
2019-01-23T08:34:46.028Z,31.85
2019-01-23T08:37:26.171Z,34.73
2019-01-23T08:40:06.175Z,32.80
2019-01-23T08:42:43.910Z,34.20
2019-01-23T08:45:30.251Z,31.52
2019-01-23T08:48:09.690Z,33.13
2019-01-23T08:50:49.878Z,32.08
2019-01-23T08:53:30.273Z,32.33
2019-01-23T08:56:10.093Z,32.90
2019-01-23T08:58:47.675Z,33.23
2019-01-23T09:01:33.928Z,35.35
2019-01-23T09:04:13.530Z,31.73
2019-01-23T09:06:53.655Z,34.30
2019-01-23T09:09:33.773Z,29.25
2019-01-23T09:12:13.951Z,32.05
2019-01-23T09:14:54.246Z,33.42
2019-01-23T09:17:34.203Z,34.15
2019-01-23T09:20:14.309Z,32.80
2019-01-23T09:22:54.508Z,31.93
2019-01-23T09:25:34.923Z,33.08
2019-01-23T09:28:14.974Z,31.17
2019-01-23T09:30:54.921Z,32.30
2019-01-23T09:33:34.996Z,31.85
2019-01-23T09:36:15.337Z,31.65
2019-01-23T09:38:55.211Z,32.13
2019-01-23T09:41:35.443Z,30.32
2019-01-23T09:44:15.163Z,31.25
2019-01-23T09:46:55.239Z,32.53
2019-01-23T09:49:35.084Z,31.70
2019-01-23T09:52:15.446Z,31.02
2019-01-23T09:54:55.280Z,28.30
2019-01-23T09:57:35.600Z,33.85
2019-01-23T10:00:15.844Z,29.98
2019-01-23T10:02:56.006Z,31.90
2019-01-23T10:05:36.082Z,32.78
2019-01-23T10:08:16.327Z,34.03
2019-01-23T10:10:56.413Z,31.90
2019-01-23T10:13:36.553Z,34.03
2019-01-23T10:16:15.996Z,32.93
2019-01-23T10:18:56.785Z,31.27
2019-01-23T10:21:36.919Z,35.03
2019-01-23T10:24:16.472Z,34.88
2019-01-23T10:26:56.365Z,32.10
2019-01-23T10:29:36.535Z,35.08
2019-01-23T10:32:16.773Z,33.42
2019-01-23T10:34:56.583Z,34.45
2019-01-23T10:37:36.599Z,32.05
2019-01-23T10:40:16.743Z,33.10
2019-01-23T10:42:57.035Z,33.53
2019-01-23T10:45:36.893Z,32.23
2019-01-23T10:48:16.910Z,29.12
2019-01-23T10:50:56.993Z,31.17
2019-01-23T10:53:36.889Z,30.05
2019-01-23T10:56:17.194Z,33.30
2019-01-23T10:58:56.953Z,31.95
2019-01-23T11:01:37.059Z,33.38
2019-01-23T11:04:17.143Z,33.63
2019-01-23T11:06:57.014Z,35.40
2019-01-23T11:09:37.305Z,34.00
2019-01-23T11:12:17.171Z,33.65
2019-01-23T11:14:57.130Z,32.83
2019-01-23T11:17:37.491Z,34.15
2019-01-23T11:20:17.193Z,34.98
2019-01-23T11:22:57.314Z,34.65
2019-01-23T11:25:37.441Z,33.38
2019-01-23T11:28:17.276Z,36.98
2019-01-23T11:30:57.354Z,34.92
2019-01-23T11:33:37.366Z,34.83
2019-01-23T11:36:17.555Z,33.30
2019-01-23T11:38:57.819Z,34.07
2019-01-23T11:41:37.885Z,34.20
2019-01-23T11:44:17.879Z,36.42
2019-01-23T11:46:57.769Z,36.35
2019-01-23T11:49:37.342Z,34.30
2019-01-23T11:52:17.306Z,36.55
2019-01-23T11:54:57.398Z,37.42
2019-01-23T11:57:37.265Z,37.17
2019-01-23T12:00:17.404Z,35.77
2019-01-23T12:02:57.516Z,36.03
2019-01-23T12:05:37.645Z,37.40
2019-01-23T12:08:17.777Z,39.58
2019-01-23T12:10:58.100Z,37.28
2019-01-23T12:13:37.959Z,35.28
2019-01-23T12:16:18.149Z,38.20
2019-01-23T12:18:58.113Z,36.33
2019-01-23T12:21:38.074Z,38.10
2019-01-23T12:24:17.309Z,36.63
2019-01-23T12:26:57.350Z,37.30
2019-01-23T12:29:37.484Z,38.95
2019-01-23T12:32:17.485Z,39.00
2019-01-23T12:34:57.564Z,41.68
2019-01-23T12:37:38.988Z,41.90
2019-01-23T12:40:18.626Z,42.03
2019-01-23T12:42:58.591Z,41.92
2019-01-23T12:45:38.672Z,42.83
2019-01-23T12:48:17.954Z,43.60
2019-01-23T12:50:57.925Z,42.45
2019-01-23T12:53:38.194Z,39.83
2019-01-23T12:56:17.925Z,41.77
2019-01-23T12:58:57.899Z,42.78
2019-01-23T13:01:41.915Z,41.48
2019-01-23T13:04:19.004Z,41.90
2019-01-23T13:06:58.986Z,45.00
2019-01-23T13:09:39.068Z,40.67
2019-01-23T13:12:05.570Z,43.57
2019-01-23T13:14:32.045Z,43.27
2019-01-23T13:16:58.432Z,44.27
2019-01-23T13:19:25.036Z,42.00
2019-01-23T13:21:51.413Z,37.53
2019-01-23T13:24:17.816Z,44.00
2019-01-23T13:26:44.249Z,40.97
2019-01-23T13:29:10.940Z,39.10
2019-01-23T13:31:37.590Z,40.97
2019-01-23T13:34:04.423Z,43.20
2019-01-23T13:36:31.077Z,41.30
2019-01-23T13:38:58.483Z,43.03
2019-01-23T13:41:25.140Z,44.10
2019-01-23T13:43:51.514Z,40.98
2019-01-23T13:46:18.153Z,40.80
2019-01-23T13:48:44.692Z,40.80
2019-01-23T13:51:11.363Z,39.77
2019-01-23T13:53:37.737Z,39.10
2019-01-23T13:56:04.227Z,41.63
2019-01-23T13:58:30.614Z,40.40
2019-01-23T14:00:57.099Z,41.00
2019-01-23T14:03:23.429Z,39.67
2019-01-23T14:05:49.801Z,40.38
2019-01-23T14:08:16.508Z,41.30
2019-01-23T14:10:43.017Z,42.43
2019-01-23T14:13:09.511Z,41.00
2019-01-23T14:15:37.600Z,41.28
2019-01-23T14:18:04.664Z,45.63
2019-01-23T14:20:31.051Z,41.40
2019-01-23T14:22:57.451Z,40.92
2019-01-23T14:25:23.874Z,44.05
2019-01-23T14:27:50.380Z,39.83
2019-01-23T14:30:34.650Z,44.23
2019-01-23T14:33:01.024Z,44.65
2019-01-23T14:35:28.127Z,43.20
2019-01-23T14:38:00.523Z,40.48
2019-01-23T14:40:23.191Z,42.67
2019-01-23T14:42:50.956Z,41.77
2019-01-23T14:45:18.450Z,39.50
2019-01-23T14:47:45.122Z,42.85
2019-01-23T14:50:13.488Z,41.53
2019-01-23T14:52:41.573Z,44.63
2019-01-23T14:55:08.835Z,42.75
2019-01-23T14:57:35.522Z,42.50
2019-01-23T15:00:05.514Z,43.55
2019-01-23T15:02:31.887Z,41.98
2019-01-23T15:04:58.441Z,42.23
2019-01-23T15:07:25.098Z,41.28
2019-01-23T15:09:51.815Z,39.30
2019-01-23T15:12:18.192Z,39.88
2019-01-23T15:14:44.569Z,41.02
2019-01-23T15:17:11.960Z,39.03
2019-01-23T15:19:38.453Z,39.08
2019-01-23T15:22:04.897Z,36.53
2019-01-23T15:24:31.251Z,39.73
2019-01-23T15:26:57.710Z,41.48
2019-01-23T15:29:24.323Z,41.30
2019-01-23T15:31:50.724Z,44.85
2019-01-23T15:34:17.104Z,41.88
2019-01-23T15:36:44.768Z,41.68
2019-01-23T15:39:11.157Z,39.13
2019-01-23T15:41:37.821Z,38.90
2019-01-23T15:44:04.311Z,41.15
2019-01-23T15:46:30.692Z,40.05
2019-01-23T15:48:57.173Z,40.38
2019-01-23T15:51:23.542Z,38.30
2019-01-23T15:53:49.953Z,41.05
2019-01-23T15:56:16.677Z,43.60
2019-01-23T15:58:43.062Z,41.92
2019-01-23T16:01:09.739Z,38.60
2019-01-23T16:03:37.206Z,43.45
2019-01-23T16:06:03.816Z,39.58
2019-01-23T16:08:30.497Z,39.15
2019-01-23T16:10:56.855Z,38.50
2019-01-23T16:13:23.410Z,40.90
2019-01-23T16:15:49.941Z,48.55
2019-01-23T16:18:16.676Z,38.95
2019-01-23T16:20:43.088Z,38.45
2019-01-23T16:23:09.768Z,39.50
2019-01-23T16:25:36.151Z,40.45
2019-01-23T16:28:02.724Z,39.55
2019-01-23T16:30:33.011Z,39.10
2019-01-23T16:32:59.343Z,40.63
2019-01-23T16:35:25.799Z,37.55
2019-01-23T16:37:52.409Z,40.15
2019-01-23T16:40:19.142Z,39.53
2019-01-23T16:42:45.534Z,42.15
2019-01-23T16:45:17.310Z,40.30
2019-01-23T16:47:45.699Z,41.33
2019-01-23T16:50:21.844Z,38.23
2019-01-23T16:52:48.515Z,37.53
2019-01-23T16:55:15.016Z,39.40
2019-01-23T16:57:42.273Z,37.42
2019-01-23T17:00:12.146Z,39.42
2019-01-23T17:02:38.946Z,36.08
2019-01-23T17:05:09.933Z,38.50
2019-01-23T17:07:36.632Z,37.40
2019-01-23T17:10:06.938Z,36.77
2019-01-23T17:12:33.335Z,35.95
2019-01-23T17:14:59.723Z,38.08
2019-01-23T17:17:26.222Z,35.08
2019-01-23T17:19:52.591Z,36.20
2019-01-23T17:22:18.995Z,37.42
2019-01-23T17:24:45.376Z,36.17
2019-01-23T17:27:11.765Z,37.00
2019-01-23T17:29:38.277Z,37.53
2019-01-23T17:32:04.759Z,38.23
2019-01-23T17:34:31.647Z,39.10
2019-01-23T17:36:58.289Z,39.75
2019-01-23T17:39:24.959Z,37.10
2019-01-23T17:41:51.421Z,36.45
2019-01-23T17:44:18.186Z,35.33
2019-01-23T17:46:44.875Z,37.50
2019-01-23T17:49:11.233Z,38.25
2019-01-23T17:51:37.696Z,37.25
2019-01-23T17:54:05.191Z,41.25
2019-01-23T17:56:31.584Z,37.75
2019-01-23T17:58:58.075Z,35.30
2019-01-23T18:01:24.447Z,37.48
2019-01-23T18:03:50.839Z,41.23
2019-01-23T18:06:17.249Z,39.83
2019-01-23T18:08:43.662Z,36.48
2019-01-23T18:11:10.055Z,35.03
2019-01-23T18:13:36.445Z,37.33
2019-01-23T18:16:03.818Z,36.70
2019-01-23T18:18:30.356Z,39.67
2019-01-23T18:20:56.741Z,40.03
2019-01-23T18:23:23.116Z,37.60
2019-01-23T18:25:49.487Z,41.25
2019-01-23T18:28:15.861Z,42.40
2019-01-23T18:30:49.561Z,44.45
2019-01-23T18:33:19.712Z,43.45
2019-01-23T18:35:55.860Z,42.95
2019-01-23T18:38:26.048Z,42.17
2019-01-23T18:41:16.157Z,42.35
2019-01-23T18:43:49.360Z,44.50
2019-01-23T18:46:36.179Z,43.38
2019-01-23T18:49:24.064Z,42.23
2019-01-23T18:52:11.951Z,40.65
2019-01-23T18:54:40.403Z,42.70
2019-01-23T18:57:10.613Z,42.53
2019-01-23T18:59:36.986Z,44.83
2019-01-23T19:02:03.688Z,44.20
2019-01-23T19:04:30.150Z,45.50
2019-01-23T19:06:56.652Z,44.60
2019-01-23T19:09:23.414Z,44.15
2019-01-23T19:11:49.818Z,43.85
2019-01-23T19:14:16.554Z,45.73
2019-01-23T19:16:42.953Z,42.90
2019-01-23T19:19:09.313Z,44.25
2019-01-23T19:21:36.983Z,44.15
2019-01-23T19:24:03.353Z,45.40
2019-01-23T19:26:29.878Z,42.62
2019-01-23T19:28:56.528Z,46.33
2019-01-23T19:31:22.917Z,44.10
2019-01-23T19:33:50.339Z,46.63
2019-01-23T19:36:16.820Z,45.05
2019-01-23T19:38:43.209Z,44.90
2019-01-23T19:41:10.086Z,45.30
2019-01-23T19:43:36.486Z,46.92
2019-01-23T19:46:03.153Z,48.58
2019-01-23T19:48:29.596Z,48.25
2019-01-23T19:50:56.025Z,49.35
2019-01-23T19:53:22.410Z,51.45
2019-01-23T19:55:49.943Z,46.40
2019-01-23T19:58:16.292Z,48.73
2019-01-23T20:00:43.701Z,48.87
2019-01-23T20:03:10.095Z,48.52
2019-01-23T20:05:36.521Z,47.93
2019-01-23T20:08:03.340Z,48.33
2019-01-23T20:10:29.748Z,46.08
2019-01-23T20:12:56.139Z,46.55
2019-01-23T20:15:22.740Z,47.05
2019-01-23T20:17:51.224Z,47.27
2019-01-23T20:20:17.604Z,49.90
2019-01-23T20:22:44.282Z,47.27
2019-01-23T20:25:18.500Z,49.40
2019-01-23T20:27:44.886Z,49.85
2019-01-23T20:30:21.124Z,47.53
2019-01-23T20:32:47.798Z,46.98
2019-01-23T20:35:14.536Z,48.38
2019-01-23T20:37:43.547Z,50.05
2019-01-23T20:40:11.124Z,47.30
2019-01-23T20:42:37.505Z,48.95
2019-01-23T20:45:07.932Z,45.12
2019-01-23T20:47:34.307Z,50.38
2019-01-23T20:50:01.038Z,50.12
2019-01-23T20:52:27.564Z,50.98
2019-01-23T20:54:53.939Z,51.73
2019-01-23T20:57:20.611Z,50.98
2019-01-23T20:59:47.630Z,54.23
2019-01-23T21:02:14.224Z,51.42
2019-01-23T21:04:41.087Z,50.95
2019-01-23T21:07:07.512Z,51.92
2019-01-23T21:09:33.943Z,47.62
2019-01-23T21:12:00.394Z,49.58
2019-01-23T21:14:26.837Z,53.35
2019-01-23T21:16:53.206Z,52.75
2019-01-23T21:19:19.955Z,54.48
2019-01-23T21:21:46.399Z,50.90
2019-01-23T21:24:12.793Z,56.98
2019-01-23T21:26:39.263Z,56.10
2019-01-23T21:29:05.804Z,56.90
2019-01-23T21:31:32.230Z,54.00
2019-01-23T21:33:58.695Z,57.65
2019-01-23T21:36:25.058Z,58.15
2019-01-23T21:38:51.743Z,53.58
2019-01-23T21:41:18.191Z,54.38
2019-01-23T21:43:44.695Z,57.30
2019-01-23T21:46:11.415Z,55.00
2019-01-23T21:48:37.828Z,53.50
2019-01-23T21:51:04.445Z,53.60
2019-01-23T21:53:31.087Z,50.60
2019-01-23T21:55:57.944Z,54.55
2019-01-23T21:58:24.598Z,53.45
2019-01-23T22:00:51.316Z,55.60
2019-01-23T22:03:18.049Z,53.00
2019-01-23T22:05:44.545Z,54.50
2019-01-23T22:08:12.098Z,53.73
2019-01-23T22:10:38.547Z,56.30
2019-01-23T22:13:05.081Z,56.48
2019-01-23T22:15:32.214Z,55.70
2019-01-23T22:18:00.007Z,57.83
2019-01-23T22:20:26.774Z,58.85
2019-01-23T22:22:53.272Z,59.42
2019-01-23T22:25:23.945Z,58.70
2019-01-23T22:27:50.450Z,57.93
2019-01-23T22:30:21.948Z,61.33
2019-01-23T22:32:48.509Z,57.65
2019-01-23T22:35:15.614Z,59.88
2019-01-23T22:37:42.116Z,57.83
2019-01-23T22:40:11.698Z,60.03
2019-01-23T22:42:38.152Z,62.08
2019-01-23T22:45:08.200Z,59.77
2019-01-23T22:47:34.583Z,62.53
2019-01-23T22:50:01.066Z,60.30
2019-01-23T22:52:27.483Z,61.45
2019-01-23T22:54:53.861Z,62.98
2019-01-23T22:57:20.532Z,59.40
2019-01-23T22:59:46.896Z,59.45
2019-01-23T23:02:13.758Z,54.05
2019-01-23T23:04:41.167Z,53.08
2019-01-23T23:07:07.548Z,56.10
2019-01-23T23:09:34.042Z,52.78
2019-01-23T23:12:00.715Z,52.55
2019-01-23T23:14:27.109Z,49.03
2019-01-23T23:16:53.539Z,56.42
2019-01-23T23:19:19.936Z,57.43
2019-01-23T23:21:46.548Z,54.65
2019-01-23T23:24:13.258Z,53.50
2019-01-23T23:26:39.948Z,51.98
2019-01-23T23:29:07.526Z,55.48
2019-01-23T23:31:38.150Z,52.60
2019-01-23T23:34:09.954Z,48.60
2019-01-23T23:36:33.846Z,46.63
2019-01-23T23:39:00.351Z,48.05
2019-01-23T23:41:26.704Z,53.58
2019-01-23T23:43:53.231Z,47.03
2019-01-23T23:46:19.847Z,48.45
2019-01-23T23:48:46.344Z,48.28
2019-01-23T23:51:12.762Z,45.23
2019-01-23T23:53:39.277Z,45.15
2019-01-23T23:56:05.779Z,44.73
2019-01-23T23:58:32.259Z,44.33
